Hadlock, Washington
Current Conditions -  °F | °C
As of 1:56 AM on Sunday 26 Oct 2014 (Local Time) from KNUW Reporting Station
Broken Clouds Broken Clouds  
Wind Chill: 55°   Ceiling: 20000
Heat Index: 55°   Visibility: 10mi
Dew Point: 44°   Wind: 10mph
Humidity: 67%   Direction: 180°S
Pressure: 29.77"   Gusts: NA
Location:  48.0288°N, 122.77°W
Report Text: KNUW 260856Z 18009KT 10SM FEW050 SCT060 BKN200 13/07 A2977 RMK AO2 SLP086 T01280067 51054 $
Loading
Personal Weather Stations






























Interactive Weather Map
Tropical Storm Tracking
New forecast layout! Learn more

10-Day Weather Forecast

Advertisements
Track Severe Weather on mobile